sensor_id;sensor_type;location;lat;lon;timestamp;P1;durP1;ratioP1;P2;durP2;ratioP2
34521;SDS011;25561;48.888;8.736;2022-08-01T05:31:31;3.50;;;1.70;;
34521;SDS011;25561;48.888;8.736;2022-08-01T05:34:36;3.00;;;1.85;;
34521;SDS011;25561;48.888;8.736;2022-08-01T05:37:38;4.80;;;1.95;;
34521;SDS011;25561;48.888;8.736;2022-08-01T05:40:40;3.72;;;1.80;;
34521;SDS011;25561;48.888;8.736;2022-08-01T05:43:42;3.30;;;1.67;;
34521;SDS011;25561;48.888;8.736;2022-08-01T05:46:44;2.13;;;1.63;;
34521;SDS011;25561;48.888;8.736;2022-08-01T05:49:45;2.22;;;1.70;;
34521;SDS011;25561;48.888;8.736;2022-08-01T05:52:47;9.43;;;1.83;;
34521;SDS011;25561;48.888;8.736;2022-08-01T05:55:49;3.20;;;1.65;;
34521;SDS011;25561;48.888;8.736;2022-08-01T05:58:52;2.42;;;1.38;;
34521;SDS011;25561;48.888;8.736;2022-08-01T06:01:54;2.83;;;1.67;;
34521;SDS011;25561;48.888;8.736;2022-08-01T06:04:56;3.75;;;1.85;;
34521;SDS011;25561;48.888;8.736;2022-08-01T06:07:58;2.33;;;1.63;;
34521;SDS011;25561;48.888;8.736;2022-08-01T06:11:00;2.28;;;1.58;;
34521;SDS011;25561;48.888;8.736;2022-08-01T06:50:05;4.60;;;2.10;;
34521;SDS011;25561;48.888;8.736;2022-08-01T06:53:10;4.15;;;1.80;;
34521;SDS011;25561;48.888;8.736;2022-08-01T06:56:12;3.15;;;1.52;;
34521;SDS011;25561;48.888;8.736;2022-08-01T06:59:14;5.10;;;1.90;;
34521;SDS011;25561;48.888;8.736;2022-08-01T07:02:15;5.35;;;1.92;;
34521;SDS011;25561;48.888;8.736;2022-08-01T07:05:17;3.35;;;2.13;;
34521;SDS011;25561;48.888;8.736;2022-08-01T07:08:20;7.75;;;2.00;;
34521;SDS011;25561;48.888;8.736;2022-08-01T07:11:23;4.70;;;2.10;;
34521;SDS011;25561;48.888;8.736;2022-08-01T07:14:25;7.22;;;1.73;;
34521;SDS011;25561;48.888;8.736;2022-08-01T07:17:26;4.68;;;1.80;;
34521;SDS011;25561;48.888;8.736;2022-08-01T07:20:28;2.80;;;1.77;;
34521;SDS011;25561;48.888;8.736;2022-08-01T07:23:36;4.63;;;2.10;;
34521;SDS011;25561;48.888;8.736;2022-08-01T07:26:46;4.93;;;1.98;;
34521;SDS011;25561;48.888;8.736;2022-08-01T07:29:54;2.85;;;1.70;;
34521;SDS011;25561;48.888;8.736;2022-08-01T07:32:56;3.20;;;2.30;;
34521;SDS011;25561;48.888;8.736;2022-08-01T07:35:58;2.92;;;2.10;;
34521;SDS011;25561;48.888;8.736;2022-08-01T07:39:00;4.13;;;1.98;;
34521;SDS011;25561;48.888;8.736;2022-08-01T07:42:02;3.85;;;2.20;;
34521;SDS011;25561;48.888;8.736;2022-08-01T07:45:13;2.72;;;2.00;;
34521;SDS011;25561;48.888;8.736;2022-08-01T07:48:16;2.65;;;2.10;;
34521;SDS011;25561;48.888;8.736;2022-08-01T07:51:18;5.22;;;2.17;;
34521;SDS011;25561;48.888;8.736;2022-08-01T07:54:19;6.68;;;2.50;;
34521;SDS011;25561;48.888;8.736;2022-08-01T07:57:34;3.88;;;2.33;;
34521;SDS011;25561;48.888;8.736;2022-08-01T08:00:35;4.90;;;2.40;;
34521;SDS011;25561;48.888;8.736;2022-08-01T08:03:37;4.75;;;2.78;;
34521;SDS011;25561;48.888;8.736;2022-08-01T08:06:39;4.97;;;2.92;;
34521;SDS011;25561;48.888;8.736;2022-08-01T08:09:42;4.90;;;3.50;;
34521;SDS011;25561;48.888;8.736;2022-08-01T08:12:44;4.90;;;3.13;;
34521;SDS011;25561;48.888;8.736;2022-08-01T08:15:47;4.00;;;2.65;;
34521;SDS011;25561;48.888;8.736;2022-08-01T08:18:49;14.63;;;3.13;;
34521;SDS011;25561;48.888;8.736;2022-08-01T08:21:51;4.20;;;2.30;;
34521;SDS011;25561;48.888;8.736;2022-08-01T08:24:52;3.55;;;2.20;;
34521;SDS011;25561;48.888;8.736;2022-08-01T08:28:00;6.82;;;2.47;;
34521;SDS011;25561;48.888;8.736;2022-08-01T08:31:02;4.30;;;2.70;;
34521;SDS011;25561;48.888;8.736;2022-08-01T08:34:04;5.47;;;2.72;;
34521;SDS011;25561;48.888;8.736;2022-08-01T08:37:06;7.28;;;3.40;;
34521;SDS011;25561;48.888;8.736;2022-08-01T08:40:09;6.13;;;2.75;;
34521;SDS011;25561;48.888;8.736;2022-08-01T08:43:11;7.35;;;2.75;;
34521;SDS011;25561;48.888;8.736;2022-08-01T08:46:14;2.80;;;2.42;;
34521;SDS011;25561;48.888;8.736;2022-08-01T08:49:19;3.55;;;2.40;;
34521;SDS011;25561;48.888;8.736;2022-08-01T08:52:23;3.63;;;2.05;;
34521;SDS011;25561;48.888;8.736;2022-08-01T08:55:25;5.00;;;2.30;;
34521;SDS011;25561;48.888;8.736;2022-08-01T08:58:28;2.63;;;2.10;;
34521;SDS011;25561;48.888;8.736;2022-08-01T09:01:35;4.47;;;2.15;;
34521;SDS011;25561;48.888;8.736;2022-08-01T09:04:37;5.40;;;2.30;;
34521;SDS011;25561;48.888;8.736;2022-08-01T09:07:41;5.43;;;2.53;;
34521;SDS011;25561;48.888;8.736;2022-08-01T09:10:42;3.00;;;2.35;;
34521;SDS011;25561;48.888;8.736;2022-08-01T09:14:01;2.25;;;1.98;;
34521;SDS011;25561;48.888;8.736;2022-08-01T09:17:09;5.15;;;2.00;;
34521;SDS011;25561;48.888;8.736;2022-08-01T09:20:22;2.20;;;2.00;;
34521;SDS011;25561;48.888;8.736;2022-08-01T09:23:32;2.60;;;2.10;;
34521;SDS011;25561;48.888;8.736;2022-08-01T09:26:35;3.53;;;2.53;;
34521;SDS011;25561;48.888;8.736;2022-08-01T09:29:37;4.68;;;2.58;;
34521;SDS011;25561;48.888;8.736;2022-08-01T09:32:57;5.40;;;1.92;;
34521;SDS011;25561;48.888;8.736;2022-08-01T09:36:06;6.55;;;2.45;;
34521;SDS011;25561;48.888;8.736;2022-08-01T09:39:14;5.97;;;2.10;;
34521;SDS011;25561;48.888;8.736;2022-08-01T09:42:18;6.05;;;2.40;;
34521;SDS011;25561;48.888;8.736;2022-08-01T09:45:32;5.15;;;3.92;;
34521;SDS011;25561;48.888;8.736;2022-08-01T09:49:14;8.88;;;3.88;;
34521;SDS011;25561;48.888;8.736;2022-08-01T09:52:12;12.95;;;3.90;;
34521;SDS011;25561;48.888;8.736;2022-08-01T09:55:21;3.58;;;2.85;;
34521;SDS011;25561;48.888;8.736;2022-08-01T09:58:23;10.25;;;2.72;;
34521;SDS011;25561;48.888;8.736;2022-08-01T10:01:25;7.00;;;2.65;;
34521;SDS011;25561;48.888;8.736;2022-08-01T10:04:45;3.78;;;2.45;;
34521;SDS011;25561;48.888;8.736;2022-08-01T10:07:59;3.47;;;2.60;;
34521;SDS011;25561;48.888;8.736;2022-08-01T10:11:08;6.38;;;2.88;;
34521;SDS011;25561;48.888;8.736;2022-08-01T10:14:12;6.03;;;2.97;;
34521;SDS011;25561;48.888;8.736;2022-08-01T10:17:19;3.22;;;2.30;;
34521;SDS011;25561;48.888;8.736;2022-08-01T10:20:24;3.28;;;2.40;;
34521;SDS011;25561;48.888;8.736;2022-08-01T10:23:34;9.52;;;3.53;;
34521;SDS011;25561;48.888;8.736;2022-08-01T10:26:41;3.88;;;2.40;;
34521;SDS011;25561;48.888;8.736;2022-08-01T10:29:47;3.80;;;2.90;;
34521;SDS011;25561;48.888;8.736;2022-08-01T10:33:09;3.35;;;2.55;;
34521;SDS011;25561;48.888;8.736;2022-08-01T10:36:17;5.78;;;2.80;;
34521;SDS011;25561;48.888;8.736;2022-08-01T10:39:22;3.15;;;2.22;;
34521;SDS011;25561;48.888;8.736;2022-08-01T10:42:26;3.90;;;2.67;;
34521;SDS011;25561;48.888;8.736;2022-08-01T10:45:29;4.45;;;3.05;;
34521;SDS011;25561;48.888;8.736;2022-08-01T10:48:45;7.13;;;3.35;;
34521;SDS011;25561;48.888;8.736;2022-08-01T10:51:58;5.28;;;2.72;;
34521;SDS011;25561;48.888;8.736;2022-08-01T10:55:01;3.88;;;2.90;;
34521;SDS011;25561;48.888;8.736;2022-08-01T10:58:07;3.40;;;2.55;;
34521;SDS011;25561;48.888;8.736;2022-08-01T11:04:39;5.53;;;2.00;;
34521;SDS011;25561;48.888;8.736;2022-08-01T11:07:53;5.70;;;2.80;;
34521;SDS011;25561;48.888;8.736;2022-08-01T11:11:01;4.90;;;2.67;;
34521;SDS011;25561;48.888;8.736;2022-08-01T11:14:04;5.78;;;2.25;;
34521;SDS011;25561;48.888;8.736;2022-08-01T11:17:42;4.57;;;2.22;;
34521;SDS011;25561;48.888;8.736;2022-08-01T11:20:43;7.20;;;2.20;;
34521;SDS011;25561;48.888;8.736;2022-08-01T11:25:14;3.33;;;2.60;;
34521;SDS011;25561;48.888;8.736;2022-08-01T11:28:23;4.22;;;2.50;;
34521;SDS011;25561;48.888;8.736;2022-08-01T11:31:24;4.75;;;2.30;;
34521;SDS011;25561;48.888;8.736;2022-08-01T11:34:58;3.38;;;2.70;;
34521;SDS011;25561;48.888;8.736;2022-08-01T11:37:56;4.10;;;2.45;;
34521;SDS011;25561;48.888;8.736;2022-08-01T11:44:54;5.53;;;2.25;;
34521;SDS011;25561;48.888;8.736;2022-08-01T11:47:57;10.23;;;2.15;;
34521;SDS011;25561;48.888;8.736;2022-08-01T11:50:59;7.88;;;2.60;;
34521;SDS011;25561;48.888;8.736;2022-08-01T11:54:02;6.07;;;1.98;;
34521;SDS011;25561;48.888;8.736;2022-08-01T11:57:07;2.40;;;1.92;;
34521;SDS011;25561;48.888;8.736;2022-08-01T12:00:13;6.70;;;3.70;;
34521;SDS011;25561;48.888;8.736;2022-08-01T12:03:22;5.32;;;2.55;;
34521;SDS011;25561;48.888;8.736;2022-08-01T12:06:34;3.58;;;2.35;;
34521;SDS011;25561;48.888;8.736;2022-08-01T12:09:35;3.25;;;2.30;;
34521;SDS011;25561;48.888;8.736;2022-08-01T12:12:40;4.55;;;2.15;;
34521;SDS011;25561;48.888;8.736;2022-08-01T12:15:45;3.58;;;2.13;;
34521;SDS011;25561;48.888;8.736;2022-08-01T12:18:47;5.72;;;2.58;;
34521;SDS011;25561;48.888;8.736;2022-08-01T12:22:04;6.80;;;2.30;;
34521;SDS011;25561;48.888;8.736;2022-08-01T12:25:14;2.53;;;2.20;;
34521;SDS011;25561;48.888;8.736;2022-08-01T12:28:18;3.83;;;2.28;;
34521;SDS011;25561;48.888;8.736;2022-08-01T12:31:30;3.08;;;2.20;;
34521;SDS011;25561;48.888;8.736;2022-08-01T12:34:32;7.50;;;2.60;;
34521;SDS011;25561;48.888;8.736;2022-08-01T12:37:36;6.93;;;2.83;;
34521;SDS011;25561;48.888;8.736;2022-08-01T12:40:40;3.72;;;2.38;;
34521;SDS011;25561;48.888;8.736;2022-08-01T12:43:46;4.82;;;2.50;;
34521;SDS011;25561;48.888;8.736;2022-08-01T12:46:49;4.05;;;3.10;;
34521;SDS011;25561;48.888;8.736;2022-08-01T12:49:51;3.63;;;2.08;;
34521;SDS011;25561;48.888;8.736;2022-08-01T12:52:53;4.95;;;2.38;;
34521;SDS011;25561;48.888;8.736;2022-08-01T12:55:56;4.55;;;2.28;;
34521;SDS011;25561;48.888;8.736;2022-08-01T12:59:00;2.17;;;1.95;;
34521;SDS011;25561;48.888;8.736;2022-08-01T13:02:07;6.30;;;2.00;;
34521;SDS011;25561;48.888;8.736;2022-08-01T13:05:10;2.90;;;1.80;;
34521;SDS011;25561;48.888;8.736;2022-08-01T13:08:13;6.43;;;2.55;;
34521;SDS011;25561;48.888;8.736;2022-08-01T13:11:16;3.57;;;2.57;;
34521;SDS011;25561;48.888;8.736;2022-08-01T13:14:27;2.90;;;1.95;;
34521;SDS011;25561;48.888;8.736;2022-08-01T13:17:30;4.63;;;1.65;;
34521;SDS011;25561;48.888;8.736;2022-08-01T13:20:34;3.10;;;2.20;;
34521;SDS011;25561;48.888;8.736;2022-08-01T13:23:37;2.75;;;1.80;;
34521;SDS011;25561;48.888;8.736;2022-08-01T13:27:00;3.28;;;2.22;;
34521;SDS011;25561;48.888;8.736;2022-08-01T13:30:20;3.75;;;2.00;;
34521;SDS011;25561;48.888;8.736;2022-08-01T13:33:24;2.85;;;2.03;;
34521;SDS011;25561;48.888;8.736;2022-08-01T13:36:30;5.22;;;2.30;;
34521;SDS011;25561;48.888;8.736;2022-08-01T13:39:32;3.78;;;1.92;;
34521;SDS011;25561;48.888;8.736;2022-08-01T13:42:42;2.10;;;1.90;;
34521;SDS011;25561;48.888;8.736;2022-08-01T13:45:43;4.57;;;2.13;;
34521;SDS011;25561;48.888;8.736;2022-08-01T13:48:45;2.45;;;2.13;;
34521;SDS011;25561;48.888;8.736;2022-08-01T13:51:50;4.53;;;2.20;;
34521;SDS011;25561;48.888;8.736;2022-08-01T13:54:52;3.97;;;2.15;;
34521;SDS011;25561;48.888;8.736;2022-08-01T13:57:54;5.60;;;2.13;;
34521;SDS011;25561;48.888;8.736;2022-08-01T14:00:55;4.00;;;1.75;;
34521;SDS011;25561;48.888;8.736;2022-08-01T14:03:57;2.80;;;1.85;;
34521;SDS011;25561;48.888;8.736;2022-08-01T14:06:59;2.20;;;2.00;;
34521;SDS011;25561;48.888;8.736;2022-08-01T14:10:09;6.05;;;1.80;;
34521;SDS011;25561;48.888;8.736;2022-08-01T14:13:20;5.53;;;2.00;;
34521;SDS011;25561;48.888;8.736;2022-08-01T14:16:24;2.22;;;1.85;;
34521;SDS011;25561;48.888;8.736;2022-08-01T14:19:25;7.05;;;1.85;;
34521;SDS011;25561;48.888;8.736;2022-08-01T14:22:40;7.03;;;2.05;;
34521;SDS011;25561;48.888;8.736;2022-08-01T14:25:42;3.70;;;2.10;;
34521;SDS011;25561;48.888;8.736;2022-08-01T14:29:04;7.90;;;2.10;;
34521;SDS011;25561;48.888;8.736;2022-08-01T14:32:06;1.90;;;1.70;;
34521;SDS011;25561;48.888;8.736;2022-08-01T14:35:08;3.20;;;1.75;;
34521;SDS011;25561;48.888;8.736;2022-08-01T14:38:10;3.47;;;1.77;;
34521;SDS011;25561;48.888;8.736;2022-08-01T14:41:21;4.60;;;1.67;;
34521;SDS011;25561;48.888;8.736;2022-08-01T14:44:23;2.88;;;1.70;;
34521;SDS011;25561;48.888;8.736;2022-08-01T14:47:28;2.75;;;1.63;;
34521;SDS011;25561;48.888;8.736;2022-08-01T14:50:30;2.63;;;1.90;;
34521;SDS011;25561;48.888;8.736;2022-08-01T14:53:32;3.15;;;1.48;;
34521;SDS011;25561;48.888;8.736;2022-08-01T14:56:36;3.35;;;1.73;;
34521;SDS011;25561;48.888;8.736;2022-08-01T14:59:38;3.17;;;1.55;;
34521;SDS011;25561;48.888;8.736;2022-08-01T15:02:39;3.60;;;1.65;;
34521;SDS011;25561;48.888;8.736;2022-08-01T15:05:42;3.35;;;1.67;;
34521;SDS011;25561;48.888;8.736;2022-08-01T15:08:44;3.97;;;1.42;;
34521;SDS011;25561;48.888;8.736;2022-08-01T15:11:46;2.22;;;1.40;;
34521;SDS011;25561;48.888;8.736;2022-08-01T15:14:48;6.05;;;1.50;;
34521;SDS011;25561;48.888;8.736;2022-08-01T15:17:50;1.90;;;1.40;;
34521;SDS011;25561;48.888;8.736;2022-08-01T15:20:53;3.15;;;1.38;;
34521;SDS011;25561;48.888;8.736;2022-08-01T15:23:55;2.33;;;1.45;;
34521;SDS011;25561;48.888;8.736;2022-08-01T15:26:57;2.22;;;1.50;;
34521;SDS011;25561;48.888;8.736;2022-08-01T15:29:59;2.78;;;1.20;;
34521;SDS011;25561;48.888;8.736;2022-08-01T15:33:01;2.05;;;1.42;;
34521;SDS011;25561;48.888;8.736;2022-08-01T15:36:03;2.25;;;1.45;;
34521;SDS011;25561;48.888;8.736;2022-08-01T15:39:05;3.20;;;1.40;;
34521;SDS011;25561;48.888;8.736;2022-08-01T15:42:09;2.30;;;1.40;;
34521;SDS011;25561;48.888;8.736;2022-08-01T15:45:20;4.03;;;1.35;;
34521;SDS011;25561;48.888;8.736;2022-08-01T15:48:42;1.67;;;1.10;;
34521;SDS011;25561;48.888;8.736;2022-08-01T15:51:44;1.90;;;1.33;;
34521;SDS011;25561;48.888;8.736;2022-08-01T15:54:46;3.10;;;1.88;;
34521;SDS011;25561;48.888;8.736;2022-08-01T15:57:48;1.88;;;1.38;;
